createdAt,value
2023-02-09T00:01:18.663Z,-0.68
2023-02-09T00:03:48.252Z,-0.67
2023-02-09T00:06:18.268Z,-0.62
2023-02-09T00:08:46.068Z,-0.61
2023-02-09T00:11:19.056Z,-0.89
2023-02-09T00:13:45.689Z,-0.66
2023-02-09T00:16:13.251Z,-0.71
2023-02-09T00:18:40.920Z,-0.79
2023-02-09T00:21:10.710Z,-0.83
2023-02-09T00:23:39.637Z,-0.85
2023-02-09T00:26:08.946Z,-0.89
2023-02-09T00:28:36.833Z,-0.92
2023-02-09T00:31:11.530Z,-1.00
2023-02-09T00:33:39.335Z,-0.99
2023-02-09T00:36:12.144Z,-1.00
2023-02-09T00:38:40.054Z,-1.01
2023-02-09T00:41:07.775Z,-1.06
2023-02-09T00:43:35.387Z,-1.08
2023-02-09T00:46:02.920Z,-1.14
2023-02-09T00:48:30.385Z,-1.16
2023-02-09T00:50:57.836Z,-1.17
2023-02-09T00:53:25.654Z,-1.25
2023-02-09T00:55:53.411Z,-1.28
2023-02-09T00:58:21.068Z,-1.26
2023-02-09T01:00:49.770Z,-1.30
2023-02-09T01:03:17.280Z,-1.39
2023-02-09T01:05:44.793Z,-1.44
2023-02-09T01:08:12.270Z,-1.50
2023-02-09T01:10:39.837Z,-1.46
2023-02-09T01:13:07.655Z,-1.59
2023-02-09T01:15:35.070Z,-1.64
2023-02-09T01:18:02.571Z,-1.64
2023-02-09T01:20:30.076Z,-1.67
2023-02-09T01:22:57.524Z,-1.64
2023-02-09T01:25:24.946Z,-1.57
2023-02-09T01:27:52.451Z,-1.49
2023-02-09T01:30:19.990Z,-1.47
2023-02-09T01:32:47.427Z,-1.39
2023-02-09T01:35:14.798Z,-1.40
2023-02-09T01:37:42.383Z,-1.46
2023-02-09T01:40:10.462Z,-1.37
2023-02-09T01:42:38.308Z,-1.32
2023-02-09T01:45:17.939Z,-1.32
2023-02-09T01:47:51.950Z,-1.35
2023-02-09T01:50:19.595Z,-1.35
2023-02-09T01:52:48.027Z,-1.28
2023-02-09T01:55:17.229Z,-1.24
2023-02-09T01:57:48.807Z,-1.23
2023-02-09T02:00:17.259Z,-1.18
2023-02-09T02:02:46.110Z,-1.11
2023-02-09T02:05:13.851Z,-1.07
2023-02-09T02:07:47.988Z,-1.08
2023-02-09T02:10:15.853Z,-1.09
2023-02-09T02:12:44.152Z,-1.15
2023-02-09T02:15:11.606Z,-1.20
2023-02-09T02:18:05.550Z,-1.12
2023-02-09T02:20:57.185Z,-1.20
2023-02-09T02:23:45.355Z,-1.07
2023-02-09T02:26:28.114Z,-1.04
2023-02-09T02:29:14.172Z,-1.02
2023-02-09T02:31:56.974Z,-0.97
2023-02-09T02:34:29.304Z,-1.01
2023-02-09T02:36:59.543Z,-1.09
2023-02-09T02:39:30.347Z,-1.10
2023-02-09T02:42:23.728Z,-1.11
2023-02-09T02:44:58.119Z,-1.17
2023-02-09T02:47:28.460Z,-1.15
2023-02-09T02:49:59.515Z,-1.15
2023-02-09T02:52:26.983Z,-1.23
2023-02-09T02:55:04.077Z,-1.30
2023-02-09T02:57:32.938Z,-1.31
2023-02-09T03:00:03.389Z,-1.31
2023-02-09T03:02:33.566Z,-1.32
2023-02-09T03:05:01.780Z,-1.33
2023-02-09T03:07:29.206Z,-1.32
2023-02-09T03:09:57.527Z,-1.33
2023-02-09T03:12:24.918Z,-1.33
2023-02-09T03:15:04.536Z,-1.28
2023-02-09T03:17:50.548Z,-1.29
2023-02-09T03:20:47.611Z,-1.35
2023-02-09T03:23:24.604Z,-1.30
2023-02-09T03:25:54.095Z,-1.53
2023-02-09T03:28:27.625Z,-1.31
2023-02-09T03:30:55.330Z,-1.31
2023-02-09T03:33:24.940Z,-1.33
2023-02-09T03:35:55.522Z,-1.27
2023-02-09T03:38:22.941Z,-1.31
2023-02-09T03:40:50.309Z,-1.33
2023-02-09T03:43:17.771Z,-1.39
2023-02-09T03:45:45.224Z,-1.39
2023-02-09T03:48:12.729Z,-1.34
2023-02-09T03:50:40.159Z,-1.26
2023-02-09T03:53:07.595Z,-1.17
2023-02-09T03:55:35.798Z,-1.15
2023-02-09T03:58:03.206Z,-1.15
2023-02-09T04:00:30.641Z,-1.14
2023-02-09T04:02:59.336Z,-1.14
2023-02-09T04:05:26.766Z,-1.13
2023-02-09T04:07:54.201Z,-1.18
2023-02-09T04:10:21.646Z,-1.12
2023-02-09T04:12:49.228Z,-1.10
2023-02-09T04:15:16.624Z,-1.10
2023-02-09T04:17:44.078Z,-1.04
2023-02-09T04:20:11.724Z,-1.01
2023-02-09T04:22:39.949Z,-0.93
2023-02-09T04:25:07.594Z,-0.93
2023-02-09T04:27:35.157Z,-0.91
2023-02-09T04:30:02.574Z,-0.95
2023-02-09T04:32:30.037Z,-0.93
2023-02-09T04:34:57.537Z,-0.85
2023-02-09T04:37:24.972Z,-0.80
2023-02-09T04:39:52.358Z,-0.71
2023-02-09T04:42:19.846Z,-0.68
2023-02-09T04:44:47.320Z,-0.62
2023-02-09T04:47:14.752Z,-0.56
2023-02-09T04:49:42.645Z,-0.52
2023-02-09T04:52:10.091Z,-0.47
2023-02-09T04:54:37.543Z,-0.44
2023-02-09T04:57:22.527Z,-0.56
2023-02-09T04:59:49.974Z,-0.53
2023-02-09T05:02:17.463Z,-0.46
2023-02-09T05:04:44.916Z,-0.46
2023-02-09T05:07:12.314Z,-0.45
2023-02-09T05:09:39.791Z,-0.49
2023-02-09T05:12:10.038Z,-0.53
2023-02-09T05:14:37.916Z,-0.65
2023-02-09T05:17:05.373Z,-0.69
2023-02-09T05:19:32.818Z,-0.72
2023-02-09T05:22:00.250Z,-0.79
2023-02-09T05:24:27.634Z,-0.76
2023-02-09T05:26:55.186Z,-0.78
2023-02-09T05:29:22.630Z,-0.80
2023-02-09T05:31:50.408Z,-0.81
2023-02-09T05:34:17.874Z,-0.83
2023-02-09T05:36:45.309Z,-0.88
2023-02-09T05:39:12.698Z,-0.86
2023-02-09T05:41:57.518Z,-0.88
2023-02-09T05:44:25.286Z,-0.89
2023-02-09T05:46:52.728Z,-0.89
2023-02-09T05:49:20.226Z,-0.89
2023-02-09T05:51:47.656Z,-0.86
2023-02-09T05:54:15.094Z,-0.87
2023-02-09T05:56:43.191Z,-0.87
2023-02-09T05:59:10.640Z,-0.87
2023-02-09T06:01:38.071Z,-0.87
2023-02-09T06:04:05.595Z,-0.88
2023-02-09T06:06:33.080Z,-0.91
2023-02-09T06:09:00.528Z,-0.89
2023-02-09T06:11:28.038Z,-0.92
2023-02-09T06:13:55.460Z,-0.95
2023-02-09T06:16:23.148Z,-0.91
2023-02-09T06:18:50.540Z,-0.92
2023-02-09T06:21:18.200Z,-0.93
2023-02-09T06:23:45.620Z,-0.94
2023-02-09T06:26:14.244Z,-1.00
2023-02-09T06:28:41.832Z,-0.98
2023-02-09T06:31:09.946Z,-0.98
2023-02-09T06:33:38.264Z,-1.02
2023-02-09T06:36:06.613Z,-0.99
2023-02-09T06:38:34.738Z,-0.96
2023-02-09T06:41:02.173Z,-0.98
2023-02-09T06:43:29.627Z,-0.96
2023-02-09T06:45:57.090Z,-0.96
2023-02-09T06:48:24.588Z,-0.94
2023-02-09T06:50:52.121Z,-0.97
2023-02-09T06:53:19.750Z,-0.94
2023-02-09T06:55:47.207Z,-0.94
2023-02-09T06:58:14.656Z,-0.91
2023-02-09T07:00:42.125Z,-0.97
2023-02-09T07:03:09.724Z,-0.98
2023-02-09T07:05:37.321Z,-0.97
2023-02-09T07:08:04.732Z,-0.97
2023-02-09T07:10:32.970Z,-0.97
2023-02-09T07:13:00.408Z,-0.94
2023-02-09T07:15:28.030Z,-0.91
2023-02-09T07:17:55.496Z,-0.90
2023-02-09T07:20:22.954Z,-1.00
2023-02-09T07:22:50.363Z,-1.00
2023-02-09T07:25:17.890Z,-0.98
2023-02-09T07:27:45.473Z,-0.97
2023-02-09T07:30:13.399Z,-0.94
2023-02-09T07:32:42.109Z,-0.91
2023-02-09T07:35:09.598Z,-0.93
2023-02-09T07:37:37.242Z,-0.86
2023-02-09T07:40:04.968Z,-0.85
2023-02-09T07:42:32.465Z,-0.84
2023-02-09T07:44:59.931Z,-0.81
2023-02-09T07:47:27.363Z,-0.83
2023-02-09T07:49:54.847Z,-0.80
2023-02-09T07:52:22.356Z,-0.71
2023-02-09T07:54:50.515Z,-0.69
2023-02-09T07:57:17.990Z,-0.63
2023-02-09T07:59:45.459Z,-0.57
2023-02-09T08:02:17.603Z,-0.54
2023-02-09T08:04:45.749Z,-0.47
2023-02-09T08:07:13.289Z,-0.36
2023-02-09T08:09:40.853Z,-0.21
2023-02-09T08:12:09.398Z,-0.27
2023-02-09T08:14:39.927Z,-0.14
2023-02-09T08:17:21.054Z,-0.09
2023-02-09T08:19:50.998Z,-0.01
2023-02-09T08:22:18.552Z,0.12
2023-02-09T08:24:46.097Z,0.22
2023-02-09T08:27:13.663Z,0.11
2023-02-09T08:29:41.250Z,0.22
2023-02-09T08:32:08.704Z,0.31
2023-02-09T08:34:36.136Z,0.36
2023-02-09T08:37:03.651Z,0.37
2023-02-09T08:39:31.243Z,0.43
2023-02-09T08:41:58.707Z,0.52
2023-02-09T08:44:26.235Z,0.62
2023-02-09T08:46:53.820Z,0.68
2023-02-09T08:49:21.499Z,0.56
2023-02-09T08:51:48.979Z,0.63
2023-02-09T08:54:16.929Z,0.64
2023-02-09T08:56:44.367Z,0.70
2023-02-09T08:59:12.527Z,0.71
2023-02-09T09:01:40.587Z,0.65
2023-02-09T09:04:08.555Z,0.73
2023-02-09T09:06:36.021Z,0.86
2023-02-09T09:09:03.634Z,0.81
2023-02-09T09:11:31.099Z,0.92
2023-02-09T09:13:59.162Z,1.04
2023-02-09T09:16:26.651Z,1.04
2023-02-09T09:18:54.117Z,0.99
2023-02-09T09:21:21.596Z,1.00
2023-02-09T09:23:49.047Z,1.20
2023-02-09T09:26:17.269Z,1.26
2023-02-09T09:28:45.144Z,1.40
2023-02-09T09:31:14.250Z,1.56
2023-02-09T09:33:42.745Z,1.46
2023-02-09T09:36:11.421Z,1.45
2023-02-09T09:38:39.949Z,1.57
2023-02-09T09:41:19.881Z,1.67
2023-02-09T09:43:47.729Z,1.84
2023-02-09T09:46:19.909Z,2.09
2023-02-09T09:48:49.766Z,1.98
2023-02-09T09:51:20.224Z,2.38
2023-02-09T09:53:49.573Z,2.45
2023-02-09T09:56:19.571Z,2.66
2023-02-09T09:58:47.091Z,2.73
2023-02-09T10:01:15.395Z,2.95
2023-02-09T10:03:42.857Z,2.92
2023-02-09T10:06:23.614Z,3.07
2023-02-09T10:08:57.386Z,3.31
2023-02-09T10:11:33.641Z,3.17
2023-02-09T10:14:01.234Z,3.28
2023-02-09T10:16:34.444Z,3.09
2023-02-09T10:19:03.528Z,3.18
2023-02-09T10:21:32.760Z,3.40
2023-02-09T10:24:03.240Z,3.42
2023-02-09T10:26:32.281Z,3.47
2023-02-09T10:29:00.974Z,3.71
2023-02-09T10:31:28.561Z,3.66
2023-02-09T10:34:02.332Z,3.81
2023-02-09T10:36:32.597Z,3.79
2023-02-09T10:39:05.292Z,3.67
2023-02-09T10:41:34.751Z,3.52
2023-02-09T10:44:06.866Z,3.31
2023-02-09T10:46:34.360Z,3.56
2023-02-09T10:49:02.155Z,3.60
2023-02-09T10:51:29.945Z,3.72
2023-02-09T10:54:00.292Z,3.58
2023-02-09T10:56:29.415Z,3.67
2023-02-09T10:59:17.171Z,3.67
2023-02-09T11:01:45.894Z,3.85
2023-02-09T11:04:19.715Z,3.91
2023-02-09T11:07:00.754Z,3.99
2023-02-09T11:09:30.384Z,4.07
2023-02-09T11:11:58.257Z,4.18
2023-02-09T11:14:25.803Z,4.06
2023-02-09T11:17:01.472Z,4.12
2023-02-09T11:19:40.878Z,4.39
2023-02-09T11:22:29.451Z,4.23
2023-02-09T11:25:19.442Z,4.24
2023-02-09T11:28:05.474Z,4.48
2023-02-09T11:30:48.515Z,4.64
2023-02-09T11:33:22.137Z,4.83
2023-02-09T11:35:58.597Z,4.93
2023-02-09T11:38:41.271Z,4.94
2023-02-09T11:41:28.367Z,4.99
2023-02-09T11:43:56.928Z,5.24
2023-02-09T11:46:25.836Z,5.33
2023-02-09T11:48:58.293Z,5.28
2023-02-09T11:51:26.917Z,5.08
2023-02-09T11:54:03.407Z,4.89
2023-02-09T11:56:31.784Z,4.63
2023-02-09T11:59:04.940Z,4.76
2023-02-09T12:01:32.276Z,4.77
2023-02-09T12:04:18.367Z,4.71
2023-02-09T12:06:47.790Z,5.01
2023-02-09T12:09:34.251Z,5.03
2023-02-09T12:12:24.955Z,5.16
2023-02-09T12:14:58.452Z,4.93
2023-02-09T12:17:37.380Z,4.90
2023-02-09T12:20:05.468Z,5.02
2023-02-09T12:22:35.947Z,5.15
2023-02-09T12:25:16.674Z,5.21
2023-02-09T12:27:45.361Z,5.55
2023-02-09T12:30:31.624Z,5.61
2023-02-09T12:33:16.010Z,5.51
2023-02-09T12:35:43.545Z,5.63
2023-02-09T12:38:16.782Z,5.81
2023-02-09T12:40:44.515Z,5.70
2023-02-09T12:43:13.968Z,5.84
2023-02-09T12:45:45.671Z,5.87
2023-02-09T12:48:13.253Z,5.78
2023-02-09T12:50:43.762Z,5.96
2023-02-09T12:53:23.240Z,6.01
2023-02-09T12:56:05.716Z,6.07
2023-02-09T12:58:37.241Z,5.62
2023-02-09T13:01:05.388Z,5.74
2023-02-09T13:03:37.233Z,5.96
2023-02-09T13:06:09.320Z,6.01
2023-02-09T13:08:47.280Z,6.07
2023-02-09T13:11:31.288Z,5.92
2023-02-09T13:14:07.759Z,6.16
2023-02-09T13:16:55.706Z,6.04
2023-02-09T13:19:46.012Z,5.88
2023-02-09T13:22:27.480Z,5.79
2023-02-09T13:24:59.271Z,5.77
2023-02-09T13:27:27.453Z,5.88
2023-02-09T13:29:56.300Z,5.99
2023-02-09T13:32:50.219Z,5.97
2023-02-09T13:35:24.605Z,5.87
2023-02-09T13:38:01.784Z,5.81
2023-02-09T13:40:34.028Z,5.67
2023-02-09T13:43:07.609Z,5.47
2023-02-09T13:45:35.224Z,5.52
2023-02-09T13:48:04.293Z,5.60
2023-02-09T13:50:33.432Z,5.53
2023-02-09T13:53:10.893Z,5.51
2023-02-09T13:55:40.910Z,5.58
2023-02-09T13:58:10.133Z,5.49
2023-02-09T14:00:42.534Z,5.35
2023-02-09T14:03:21.259Z,5.43
2023-02-09T14:05:53.271Z,5.35
2023-02-09T14:08:22.173Z,5.31
2023-02-09T14:10:53.644Z,5.30
2023-02-09T14:13:32.721Z,5.22
2023-02-09T14:16:06.993Z,5.14
2023-02-09T14:18:53.042Z,5.17
2023-02-09T14:21:20.436Z,5.07
2023-02-09T14:24:12.583Z,5.17
2023-02-09T14:26:46.076Z,5.19
2023-02-09T14:29:24.052Z,5.30
2023-02-09T14:31:52.763Z,5.28
2023-02-09T14:34:24.588Z,5.27
2023-02-09T14:36:53.064Z,5.14
2023-02-09T14:39:21.120Z,5.31
2023-02-09T14:41:57.798Z,5.32
2023-02-09T14:44:25.486Z,5.28
2023-02-09T14:47:00.540Z,5.17
2023-02-09T14:49:28.623Z,5.32
2023-02-09T14:52:07.353Z,5.14
2023-02-09T14:54:35.779Z,5.16
2023-02-09T14:57:03.868Z,5.14
2023-02-09T14:59:31.771Z,5.20
2023-02-09T15:01:59.195Z,5.12
2023-02-09T15:04:26.699Z,5.06
2023-02-09T15:06:59.668Z,5.14
2023-02-09T15:09:30.154Z,5.14
2023-02-09T15:12:06.728Z,5.17
2023-02-09T15:14:40.279Z,5.06
2023-02-09T15:17:15.569Z,5.06
2023-02-09T15:19:43.144Z,5.08
2023-02-09T15:22:13.600Z,5.07
2023-02-09T15:24:41.663Z,5.12
2023-02-09T15:27:35.192Z,5.13
2023-02-09T15:30:04.798Z,5.08
2023-02-09T15:32:32.470Z,5.09
2023-02-09T15:35:00.051Z,4.89
2023-02-09T15:37:29.128Z,5.06
2023-02-09T15:39:58.827Z,5.06
2023-02-09T15:42:43.636Z,5.04
2023-02-09T15:45:39.629Z,5.09
2023-02-09T15:48:07.389Z,5.08
2023-02-09T15:50:36.457Z,5.15
2023-02-09T15:53:08.368Z,5.04
2023-02-09T15:55:36.623Z,4.98
2023-02-09T15:58:05.405Z,5.04
2023-02-09T16:00:33.141Z,5.05
2023-02-09T16:03:01.406Z,5.04
2023-02-09T16:05:30.088Z,5.00
2023-02-09T16:07:57.935Z,4.98
2023-02-09T16:10:29.713Z,5.01
2023-02-09T16:12:57.729Z,4.94
2023-02-09T16:15:26.393Z,4.86
2023-02-09T16:17:53.802Z,4.89
2023-02-09T16:20:21.433Z,4.91
2023-02-09T16:22:49.740Z,4.88
2023-02-09T16:25:18.660Z,4.87
2023-02-09T16:27:46.313Z,4.84
2023-02-09T16:30:21.213Z,4.77
2023-02-09T16:32:49.061Z,4.76
2023-02-09T16:35:17.522Z,4.80
2023-02-09T16:37:46.116Z,4.75
2023-02-09T16:40:22.456Z,4.85
2023-02-09T16:42:49.925Z,4.85
2023-02-09T16:45:18.425Z,4.84
2023-02-09T16:47:50.239Z,4.84
2023-02-09T16:50:23.747Z,4.86
2023-02-09T16:52:55.640Z,4.92
2023-02-09T16:55:25.527Z,4.93
2023-02-09T16:57:54.943Z,4.99
2023-02-09T17:00:30.568Z,5.01
2023-02-09T17:02:59.435Z,4.94
2023-02-09T17:05:31.206Z,4.94
2023-02-09T17:08:03.632Z,4.95
2023-02-09T17:10:33.178Z,5.01
2023-02-09T17:13:01.898Z,4.94
2023-02-09T17:15:31.820Z,4.87
2023-02-09T17:18:02.300Z,4.89
2023-02-09T17:20:32.893Z,4.84
2023-02-09T17:23:00.300Z,4.80
2023-02-09T17:25:27.787Z,4.71
2023-02-09T17:27:55.334Z,4.72
2023-02-09T17:30:22.796Z,4.65
2023-02-09T17:32:54.060Z,4.59
2023-02-09T17:35:44.569Z,4.52
2023-02-09T17:38:30.143Z,4.49
2023-02-09T17:40:59.114Z,4.41
2023-02-09T17:43:26.750Z,4.38
2023-02-09T17:45:54.519Z,4.32
2023-02-09T17:48:23.055Z,4.29
2023-02-09T17:50:52.688Z,4.31
2023-02-09T17:53:21.822Z,4.26
2023-02-09T17:55:49.673Z,4.23
2023-02-09T17:58:17.425Z,4.19
2023-02-09T18:00:45.526Z,4.13
2023-02-09T18:03:15.720Z,4.09
2023-02-09T18:05:43.412Z,4.08
2023-02-09T18:08:10.981Z,4.06
2023-02-09T18:10:38.952Z,4.05
2023-02-09T18:13:06.424Z,4.05
2023-02-09T18:15:35.876Z,4.01
2023-02-09T18:18:03.396Z,3.97
2023-02-09T18:20:33.154Z,3.95
2023-02-09T18:23:02.324Z,3.96
2023-02-09T18:25:32.151Z,3.93
2023-02-09T18:27:59.916Z,3.86
2023-02-09T18:30:47.751Z,3.79
2023-02-09T18:33:16.017Z,3.73
2023-02-09T18:35:45.037Z,3.66
2023-02-09T18:38:14.562Z,3.61
2023-02-09T18:40:41.994Z,3.60
2023-02-09T18:43:09.552Z,3.53
2023-02-09T18:45:37.195Z,3.50
2023-02-09T18:48:04.810Z,3.47
2023-02-09T18:50:32.896Z,3.29
2023-02-09T18:53:02.104Z,3.28
2023-02-09T18:55:30.868Z,3.22
2023-02-09T18:57:59.257Z,3.14
2023-02-09T19:00:26.795Z,3.02
2023-02-09T19:02:57.542Z,3.03
2023-02-09T19:05:26.292Z,2.96
2023-02-09T19:07:54.693Z,2.87
2023-02-09T19:10:22.725Z,2.83
2023-02-09T19:12:50.314Z,2.83
2023-02-09T19:15:18.616Z,2.82
2023-02-09T19:17:46.277Z,2.80
2023-02-09T19:20:16.866Z,2.81
2023-02-09T19:22:44.629Z,2.78
2023-02-09T19:25:12.077Z,2.73
2023-02-09T19:27:39.490Z,2.64
2023-02-09T19:30:07.271Z,2.64
2023-02-09T19:32:34.695Z,2.56
2023-02-09T19:35:03.143Z,2.48
2023-02-09T19:37:30.598Z,2.47
2023-02-09T19:40:04.578Z,2.45
2023-02-09T19:42:32.739Z,2.41
2023-02-09T19:45:00.194Z,2.33
2023-02-09T19:47:27.685Z,2.29
2023-02-09T19:49:58.939Z,2.32
2023-02-09T19:52:27.279Z,2.30
2023-02-09T19:54:56.633Z,2.33
2023-02-09T19:57:25.112Z,2.37
2023-02-09T19:59:54.084Z,2.40
2023-02-09T20:02:21.490Z,2.33
2023-02-09T20:04:48.886Z,2.35
2023-02-09T20:07:16.303Z,2.39
2023-02-09T20:09:44.113Z,2.34
2023-02-09T20:12:11.541Z,2.34
2023-02-09T20:14:39.119Z,2.31
2023-02-09T20:17:06.675Z,2.22
2023-02-09T20:19:36.955Z,2.16
2023-02-09T20:22:04.549Z,2.18
2023-02-09T20:24:32.194Z,2.18
2023-02-09T20:26:59.643Z,2.16
2023-02-09T20:29:27.068Z,2.19
2023-02-09T20:31:54.612Z,2.15
2023-02-09T20:34:22.049Z,2.13
2023-02-09T20:36:50.543Z,2.12
2023-02-09T20:39:18.047Z,2.10
2023-02-09T20:42:03.160Z,2.10
2023-02-09T20:44:48.346Z,2.10
2023-02-09T20:47:15.757Z,2.05
2023-02-09T20:49:43.216Z,2.06
2023-02-09T20:52:10.718Z,2.03
2023-02-09T20:54:38.154Z,2.04
2023-02-09T20:57:06.067Z,2.06
2023-02-09T20:59:34.082Z,2.09
2023-02-09T21:02:01.916Z,2.08
2023-02-09T21:04:30.286Z,2.09
2023-02-09T21:06:58.787Z,2.24
2023-02-09T21:09:28.229Z,2.13
2023-02-09T21:11:56.082Z,2.17
2023-02-09T21:14:32.586Z,2.22
2023-02-09T21:17:08.250Z,2.24
2023-02-09T21:19:35.808Z,2.28
2023-02-09T21:22:03.229Z,2.21
2023-02-09T21:24:30.624Z,2.22
2023-02-09T21:27:00.665Z,2.18
2023-02-09T21:29:29.084Z,2.10
2023-02-09T21:31:57.071Z,2.00
2023-02-09T21:34:24.565Z,2.09
2023-02-09T21:36:52.442Z,2.10
2023-02-09T21:39:19.837Z,2.11
2023-02-09T21:42:04.859Z,2.05
2023-02-09T21:44:32.364Z,2.05
2023-02-09T21:47:00.713Z,1.97
2023-02-09T21:49:31.553Z,2.03
2023-02-09T21:51:59.379Z,2.01
2023-02-09T21:54:32.753Z,1.96
2023-02-09T21:57:00.884Z,1.97
2023-02-09T21:59:28.562Z,1.85
2023-02-09T22:01:56.385Z,1.64
2023-02-09T22:04:23.997Z,1.52
2023-02-09T22:06:51.457Z,1.50
2023-02-09T22:09:20.163Z,1.36
2023-02-09T22:11:47.653Z,1.32
2023-02-09T22:14:15.522Z,1.31
2023-02-09T22:16:43.153Z,1.32
2023-02-09T22:19:10.612Z,1.33
2023-02-09T22:21:38.112Z,1.28
2023-02-09T22:24:05.711Z,1.18
2023-02-09T22:26:33.165Z,1.13
2023-02-09T22:29:00.569Z,1.11
2023-02-09T22:31:27.988Z,1.12
2023-02-09T22:33:58.070Z,0.83
2023-02-09T22:36:25.867Z,1.26
2023-02-09T22:38:53.400Z,1.44
2023-02-09T22:41:25.023Z,1.64
2023-02-09T22:43:53.520Z,1.65
2023-02-09T22:46:22.056Z,1.83
2023-02-09T22:48:53.233Z,1.88
2023-02-09T22:51:20.894Z,1.91
2023-02-09T22:53:48.599Z,1.96
2023-02-09T22:56:16.151Z,2.03
2023-02-09T22:58:43.987Z,1.99
2023-02-09T23:01:11.555Z,2.06
2023-02-09T23:03:39.551Z,2.16
2023-02-09T23:06:08.626Z,2.23
2023-02-09T23:08:36.533Z,2.32
2023-02-09T23:11:03.973Z,2.19
2023-02-09T23:13:34.819Z,2.23
2023-02-09T23:16:08.119Z,2.21
2023-02-09T23:18:35.632Z,2.11
2023-02-09T23:21:03.702Z,2.10
2023-02-09T23:23:31.403Z,2.11
2023-02-09T23:25:58.873Z,2.19
2023-02-09T23:28:26.765Z,2.17
2023-02-09T23:30:54.290Z,2.14
2023-02-09T23:33:21.785Z,2.12
2023-02-09T23:35:49.612Z,2.04
2023-02-09T23:38:18.018Z,2.04
2023-02-09T23:40:45.470Z,2.07
2023-02-09T23:43:12.947Z,2.03
2023-02-09T23:45:40.346Z,2.07
2023-02-09T23:48:07.840Z,2.03
2023-02-09T23:50:35.290Z,1.98
2023-02-09T23:53:02.745Z,2.00
2023-02-09T23:55:30.192Z,1.99
2023-02-09T23:57:57.713Z,1.98
